sensor_id;sensor_type;location;lat;lon;timestamp;pressure;altitude;pressure_sealevel;temperature;humidity
44926;BME280;30662;51.210;7.656;2023-04-27T00:01:28;150026.91;;;4.87;87.82
44926;BME280;30662;51.210;7.656;2023-04-27T00:03:55;150045.81;;;4.95;87.13
44926;BME280;30662;51.210;7.656;2023-04-27T00:06:21;150062.22;;;5.02;87.18
44926;BME280;30662;51.210;7.656;2023-04-27T00:08:47;150023.16;;;4.86;87.24
44926;BME280;30662;51.210;7.656;2023-04-27T00:11:13;150023.16;;;4.86;87.63
44926;BME280;30662;51.210;7.656;2023-04-27T00:13:39;150006.75;;;4.79;87.62
44926;BME280;30662;51.210;7.656;2023-04-27T00:16:05;149990.38;;;4.73;89.78
44926;BME280;30662;51.210;7.656;2023-04-27T00:18:31;149986.59;;;4.71;90.08
44926;BME280;30662;51.210;7.656;2023-04-27T00:20:57;149995.41;;;4.75;90.49
44926;BME280;30662;51.210;7.656;2023-04-27T00:23:23;150004.25;;;4.78;91.59
44926;BME280;30662;51.210;7.656;2023-04-27T00:25:49;150008.00;;;4.80;91.54
44926;BME280;30662;51.210;7.656;2023-04-27T00:28:15;150024.41;;;4.86;90.82
44926;BME280;30662;51.210;7.656;2023-04-27T00:30:41;150001.69;;;4.77;89.80
44926;BME280;30662;51.210;7.656;2023-04-27T00:33:07;150011.78;;;4.81;89.21
44926;BME280;30662;51.210;7.656;2023-04-27T00:35:33;150000.41;;;4.77;89.33
44926;BME280;30662;51.210;7.656;2023-04-27T00:37:59;150013.03;;;4.82;89.07
44926;BME280;30662;51.210;7.656;2023-04-27T00:40:24;150008.00;;;4.80;88.77
44926;BME280;30662;51.210;7.656;2023-04-27T00:42:50;149992.88;;;4.74;89.43
44926;BME280;30662;51.210;7.656;2023-04-27T00:45:17;149962.63;;;4.61;90.52
44926;BME280;30662;51.210;7.656;2023-04-27T00:47:43;149982.78;;;4.69;91.39
44926;BME280;30662;51.210;7.656;2023-04-27T00:50:09;149987.84;;;4.72;91.32
44926;BME280;30662;51.210;7.656;2023-04-27T00:52:37;150009.28;;;4.80;91.64
44926;BME280;30662;51.210;7.656;2023-04-27T00:55:04;149995.41;;;4.75;92.64
44926;BME280;30662;51.210;7.656;2023-04-27T00:57:30;150000.41;;;4.77;92.30
44926;BME280;30662;51.210;7.656;2023-04-27T01:00:00;149946.22;;;4.55;92.40
44926;BME280;30662;51.210;7.656;2023-04-27T01:02:27;149917.28;;;4.43;93.21
44926;BME280;30662;51.210;7.656;2023-04-27T01:04:54;149934.91;;;4.50;92.51
44926;BME280;30662;51.210;7.656;2023-04-27T01:07:24;149921.03;;;4.45;92.54
44926;BME280;30662;51.210;7.656;2023-04-27T01:09:51;149934.91;;;4.50;92.31
44926;BME280;30662;51.210;7.656;2023-04-27T01:12:17;149905.91;;;4.38;93.26
44926;BME280;30662;51.210;7.656;2023-04-27T01:14:43;149941.19;;;4.53;92.48
44926;BME280;30662;51.210;7.656;2023-04-27T01:17:09;149927.31;;;4.47;92.68
44926;BME280;30662;51.210;7.656;2023-04-27T01:19:38;149897.13;;;4.35;94.30
44926;BME280;30662;51.210;7.656;2023-04-27T01:22:04;149899.63;;;4.36;94.39
44926;BME280;30662;51.210;7.656;2023-04-27T01:24:31;149866.88;;;4.23;94.89
44926;BME280;30662;51.210;7.656;2023-04-27T01:26:57;149870.63;;;4.24;95.13
44926;BME280;30662;51.210;7.656;2023-04-27T01:29:23;149854.25;;;4.18;95.93
44926;BME280;30662;51.210;7.656;2023-04-27T01:31:49;149855.50;;;4.18;96.65
44926;BME280;30662;51.210;7.656;2023-04-27T01:34:15;149880.75;;;4.28;96.39
44926;BME280;30662;51.210;7.656;2023-04-27T01:36:41;149876.91;;;4.27;96.57
44926;BME280;30662;51.210;7.656;2023-04-27T01:39:07;149878.19;;;4.27;95.67
44926;BME280;30662;51.210;7.656;2023-04-27T01:41:35;149879.47;;;4.28;96.24
44926;BME280;30662;51.210;7.656;2023-04-27T01:44:01;149840.38;;;4.12;96.95
44926;BME280;30662;51.210;7.656;2023-04-27T01:46:27;149818.97;;;4.03;98.00
44926;BME280;30662;51.210;7.656;2023-04-27T01:48:53;149835.34;;;4.10;97.84
44926;BME280;30662;51.210;7.656;2023-04-27T01:51:19;149842.94;;;4.13;97.13
44926;BME280;30662;51.210;7.656;2023-04-27T01:53:45;149859.28;;;4.20;96.42
44926;BME280;30662;51.210;7.656;2023-04-27T01:56:11;149836.63;;;4.10;96.98
44926;BME280;30662;51.210;7.656;2023-04-27T01:58:37;149832.84;;;4.09;96.80
44926;BME280;30662;51.210;7.656;2023-04-27T02:01:03;149812.69;;;4.01;97.08
44926;BME280;30662;51.210;7.656;2023-04-27T02:03:28;149840.38;;;4.12;96.40
44926;BME280;30662;51.210;7.656;2023-04-27T02:05:55;149837.88;;;4.11;97.20
44926;BME280;30662;51.210;7.656;2023-04-27T02:08:21;149832.84;;;4.09;97.42
44926;BME280;30662;51.210;7.656;2023-04-27T02:10:47;149831.59;;;4.08;97.17
44926;BME280;30662;51.210;7.656;2023-04-27T02:13:12;149818.97;;;4.03;96.97
44926;BME280;30662;51.210;7.656;2023-04-27T02:15:38;149808.94;;;3.99;97.47
44926;BME280;30662;51.210;7.656;2023-04-27T02:18:04;149798.84;;;3.95;98.77
44926;BME280;30662;51.210;7.656;2023-04-27T02:20:31;149771.16;;;3.84;99.54
44926;BME280;30662;51.210;7.656;2023-04-27T02:22:57;149798.84;;;3.95;99.26
44926;BME280;30662;51.210;7.656;2023-04-27T02:25:23;149747.19;;;3.74;99.71
44926;BME280;30662;51.210;7.656;2023-04-27T02:27:49;149745.94;;;3.74;100.00
44926;BME280;30662;51.210;7.656;2023-04-27T02:30:15;149740.91;;;3.72;100.00
44926;BME280;30662;51.210;7.656;2023-04-27T02:32:42;149753.50;;;3.77;100.00
44926;BME280;30662;51.210;7.656;2023-04-27T02:35:08;149771.16;;;3.84;99.84
44926;BME280;30662;51.210;7.656;2023-04-27T02:37:34;149740.91;;;3.72;100.00
44926;BME280;30662;51.210;7.656;2023-04-27T02:40:01;149723.28;;;3.65;100.00
44926;BME280;30662;51.210;7.656;2023-04-27T02:42:28;149730.81;;;3.68;100.00
44926;BME280;30662;51.210;7.656;2023-04-27T02:44:54;149701.88;;;3.56;100.00
44926;BME280;30662;51.210;7.656;2023-04-27T02:47:20;149715.69;;;3.62;100.00
44926;BME280;30662;51.210;7.656;2023-04-27T02:49:46;149711.94;;;3.60;100.00
44926;BME280;30662;51.210;7.656;2023-04-27T02:52:12;149670.38;;;3.43;100.00
44926;BME280;30662;51.210;7.656;2023-04-27T02:54:38;149696.81;;;3.54;100.00
44926;BME280;30662;51.210;7.656;2023-04-27T02:57:03;149723.28;;;3.65;100.00
44926;BME280;30662;51.210;7.656;2023-04-27T02:59:29;149701.88;;;3.56;100.00
44926;BME280;30662;51.210;7.656;2023-04-27T03:01:55;149650.25;;;3.35;100.00
44926;BME280;30662;51.210;7.656;2023-04-27T03:04:21;149656.53;;;3.38;100.00
44926;BME280;30662;51.210;7.656;2023-04-27T03:06:47;149681.75;;;3.48;100.00
44926;BME280;30662;51.210;7.656;2023-04-27T03:09:13;149695.56;;;3.53;100.00
44926;BME280;30662;51.210;7.656;2023-04-27T03:11:39;149696.81;;;3.54;100.00
44926;BME280;30662;51.210;7.656;2023-04-27T03:14:05;149649.00;;;3.35;100.00
44926;BME280;30662;51.210;7.656;2023-04-27T03:16:31;149652.75;;;3.36;100.00
44926;BME280;30662;51.210;7.656;2023-04-27T03:18:58;149656.53;;;3.38;100.00
44926;BME280;30662;51.210;7.656;2023-04-27T03:21:24;149640.16;;;3.31;100.00
44926;BME280;30662;51.210;7.656;2023-04-27T03:23:51;149647.75;;;3.34;100.00
44926;BME280;30662;51.210;7.656;2023-04-27T03:26:18;149599.88;;;3.15;100.00
44926;BME280;30662;51.210;7.656;2023-04-27T03:28:45;149602.41;;;3.16;100.00
44926;BME280;30662;51.210;7.656;2023-04-27T03:31:12;149594.88;;;3.13;100.00
44926;BME280;30662;51.210;7.656;2023-04-27T03:33:38;149592.34;;;3.12;100.00
44926;BME280;30662;51.210;7.656;2023-04-27T03:36:05;149607.41;;;3.18;100.00
44926;BME280;30662;51.210;7.656;2023-04-27T03:38:31;149620.03;;;3.23;100.00
44926;BME280;30662;51.210;7.656;2023-04-27T03:40:57;149621.28;;;3.23;100.00
44926;BME280;30662;51.210;7.656;2023-04-27T03:43:24;149612.50;;;3.20;100.00
44926;BME280;30662;51.210;7.656;2023-04-27T03:45:50;149599.88;;;3.15;100.00
44926;BME280;30662;51.210;7.656;2023-04-27T03:48:16;149597.38;;;3.14;100.00
44926;BME280;30662;51.210;7.656;2023-04-27T03:50:43;149596.13;;;3.13;100.00
44926;BME280;30662;51.210;7.656;2023-04-27T03:53:09;149598.63;;;3.14;100.00
44926;BME280;30662;51.210;7.656;2023-04-27T03:55:43;149583.50;;;3.08;100.00
44926;BME280;30662;51.210;7.656;2023-04-27T03:58:09;149579.75;;;3.07;100.00
44926;BME280;30662;51.210;7.656;2023-04-27T04:00:36;149617.50;;;3.22;100.00
44926;BME280;30662;51.210;7.656;2023-04-27T04:03:03;149599.88;;;3.15;100.00
44926;BME280;30662;51.210;7.656;2023-04-27T04:05:30;149606.16;;;3.17;100.00
44926;BME280;30662;51.210;7.656;2023-04-27T04:07:56;149572.16;;;3.03;100.00
44926;BME280;30662;51.210;7.656;2023-04-27T04:10:23;149570.91;;;3.03;100.00
44926;BME280;30662;51.210;7.656;2023-04-27T04:12:49;149557.09;;;2.97;100.00
44926;BME280;30662;51.210;7.656;2023-04-27T04:15:15;149564.63;;;3.00;100.00
44926;BME280;30662;51.210;7.656;2023-04-27T04:17:41;149494.16;;;2.72;100.00
44926;BME280;30662;51.210;7.656;2023-04-27T04:20:07;149518.06;;;2.82;100.00
44926;BME280;30662;51.210;7.656;2023-04-27T04:22:36;149529.41;;;2.86;100.00
44926;BME280;30662;51.210;7.656;2023-04-27T04:25:03;149490.41;;;2.70;100.00
44926;BME280;30662;51.210;7.656;2023-04-27T04:27:29;149523.13;;;2.84;100.00
44926;BME280;30662;51.210;7.656;2023-04-27T04:29:56;149497.94;;;2.73;100.00
44926;BME280;30662;51.210;7.656;2023-04-27T04:32:25;149475.28;;;2.64;100.00
44926;BME280;30662;51.210;7.656;2023-04-27T04:34:54;149482.81;;;2.67;100.00
44926;BME280;30662;51.210;7.656;2023-04-27T04:37:23;149543.25;;;2.92;100.00
44926;BME280;30662;51.210;7.656;2023-04-27T04:39:49;149535.66;;;2.89;100.00
44926;BME280;30662;51.210;7.656;2023-04-27T04:42:15;149549.53;;;2.94;100.00
44926;BME280;30662;51.210;7.656;2023-04-27T04:44:43;149545.75;;;2.93;100.00
44926;BME280;30662;51.210;7.656;2023-04-27T04:47:09;149597.38;;;3.14;100.00
44926;BME280;30662;51.210;7.656;2023-04-27T04:49:36;149570.91;;;3.03;100.00
44926;BME280;30662;51.210;7.656;2023-04-27T04:52:02;149568.41;;;3.02;100.00
44926;BME280;30662;51.210;7.656;2023-04-27T04:54:31;149597.38;;;3.14;100.00
44926;BME280;30662;51.210;7.656;2023-04-27T04:56:56;149577.25;;;3.06;100.00
44926;BME280;30662;51.210;7.656;2023-04-27T04:59:23;149582.25;;;3.08;100.00
44926;BME280;30662;51.210;7.656;2023-04-27T05:01:49;149616.25;;;3.21;100.00
44926;BME280;30662;51.210;7.656;2023-04-27T05:04:15;149617.50;;;3.22;100.00
44926;BME280;30662;51.210;7.656;2023-04-27T05:06:43;149617.50;;;3.22;100.00
44926;BME280;30662;51.210;7.656;2023-04-27T05:09:09;149628.84;;;3.26;100.00
44926;BME280;30662;51.210;7.656;2023-04-27T05:11:35;149616.25;;;3.21;100.00
44926;BME280;30662;51.210;7.656;2023-04-27T05:14:00;149594.88;;;3.13;100.00
44926;BME280;30662;51.210;7.656;2023-04-27T05:16:26;149599.88;;;3.15;100.00
44926;BME280;30662;51.210;7.656;2023-04-27T05:18:52;149584.78;;;3.09;100.00
44926;BME280;30662;51.210;7.656;2023-04-27T05:21:19;149582.25;;;3.08;100.00
44926;BME280;30662;51.210;7.656;2023-04-27T05:23:46;149628.84;;;3.26;100.00
44926;BME280;30662;51.210;7.656;2023-04-27T05:26:16;149597.38;;;3.14;100.00
44926;BME280;30662;51.210;7.656;2023-04-27T05:28:42;149552.03;;;2.95;100.00
44926;BME280;30662;51.210;7.656;2023-04-27T05:31:08;149553.28;;;2.96;100.00
44926;BME280;30662;51.210;7.656;2023-04-27T05:33:34;149575.97;;;3.05;100.00
44926;BME280;30662;51.210;7.656;2023-04-27T05:36:00;149606.16;;;3.17;100.00
44926;BME280;30662;51.210;7.656;2023-04-27T05:38:26;149598.63;;;3.14;100.00
44926;BME280;30662;51.210;7.656;2023-04-27T05:40:57;149643.91;;;3.32;100.00
44926;BME280;30662;51.210;7.656;2023-04-27T05:43:23;149642.66;;;3.32;100.00
44926;BME280;30662;51.210;7.656;2023-04-27T05:45:50;149657.78;;;3.38;100.00
44926;BME280;30662;51.210;7.656;2023-04-27T05:48:16;149667.88;;;3.42;100.00
44926;BME280;30662;51.210;7.656;2023-04-27T05:50:42;149695.56;;;3.53;100.00
44926;BME280;30662;51.210;7.656;2023-04-27T05:53:08;149676.66;;;3.46;100.00
44926;BME280;30662;51.210;7.656;2023-04-27T05:55:34;149683.00;;;3.48;100.00
44926;BME280;30662;51.210;7.656;2023-04-27T05:58:00;149711.94;;;3.60;100.00
44926;BME280;30662;51.210;7.656;2023-04-27T06:00:34;149735.88;;;3.70;100.00
44926;BME280;30662;51.210;7.656;2023-04-27T06:03:01;149777.44;;;3.86;100.00
44926;BME280;30662;51.210;7.656;2023-04-27T06:05:27;149769.84;;;3.83;100.00
44926;BME280;30662;51.210;7.656;2023-04-27T06:07:53;149793.81;;;3.93;100.00
44926;BME280;30662;51.210;7.656;2023-04-27T06:10:18;149791.28;;;3.92;100.00
44926;BME280;30662;51.210;7.656;2023-04-27T06:12:44;149782.44;;;3.88;100.00
44926;BME280;30662;51.210;7.656;2023-04-27T06:15:11;149744.69;;;3.73;100.00
44926;BME280;30662;51.210;7.656;2023-04-27T06:17:37;149778.69;;;3.87;100.00
44926;BME280;30662;51.210;7.656;2023-04-27T06:20:05;149742.16;;;3.72;100.00
44926;BME280;30662;51.210;7.656;2023-04-27T06:22:37;149752.22;;;3.76;100.00
44926;BME280;30662;51.210;7.656;2023-04-27T06:25:04;149800.09;;;3.96;100.00
44926;BME280;30662;51.210;7.656;2023-04-27T06:27:31;149810.19;;;4.00;100.00
44926;BME280;30662;51.210;7.656;2023-04-27T06:29:57;149786.22;;;3.90;100.00
44926;BME280;30662;51.210;7.656;2023-04-27T06:32:23;149837.88;;;4.11;100.00
44926;BME280;30662;51.210;7.656;2023-04-27T06:34:49;149845.47;;;4.14;100.00
44926;BME280;30662;51.210;7.656;2023-04-27T06:37:17;149859.28;;;4.20;100.00
44926;BME280;30662;51.210;7.656;2023-04-27T06:39:43;149865.63;;;4.22;100.00
44926;BME280;30662;51.210;7.656;2023-04-27T06:42:09;149910.94;;;4.40;100.00
44926;BME280;30662;51.210;7.656;2023-04-27T06:44:36;149923.56;;;4.46;100.00
44926;BME280;30662;51.210;7.656;2023-04-27T06:47:02;149904.66;;;4.38;100.00
44926;BME280;30662;51.210;7.656;2023-04-27T06:49:28;149870.63;;;4.24;100.00
44926;BME280;30662;51.210;7.656;2023-04-27T06:51:54;149861.84;;;4.21;100.00
44926;BME280;30662;51.210;7.656;2023-04-27T06:54:20;149879.47;;;4.28;100.00
44926;BME280;30662;51.210;7.656;2023-04-27T06:56:46;149884.50;;;4.30;100.00
44926;BME280;30662;51.210;7.656;2023-04-27T06:59:12;149902.16;;;4.37;100.00
44926;BME280;30662;51.210;7.656;2023-04-27T07:01:38;149922.31;;;4.45;100.00
44926;BME280;30662;51.210;7.656;2023-04-27T07:04:05;149914.75;;;4.42;100.00
44926;BME280;30662;51.210;7.656;2023-04-27T07:06:31;149921.03;;;4.45;100.00
44926;BME280;30662;51.210;7.656;2023-04-27T07:08:58;149916.03;;;4.42;100.00
44926;BME280;30662;51.210;7.656;2023-04-27T07:11:24;149924.81;;;4.46;100.00
44926;BME280;30662;51.210;7.656;2023-04-27T07:13:50;149970.22;;;4.64;100.00
44926;BME280;30662;51.210;7.656;2023-04-27T07:16:15;149994.13;;;4.74;100.00
44926;BME280;30662;51.210;7.656;2023-04-27T07:18:42;150020.59;;;4.85;100.00
44926;BME280;30662;51.210;7.656;2023-04-27T07:21:09;150040.78;;;4.93;100.00
44926;BME280;30662;51.210;7.656;2023-04-27T07:23:35;150063.47;;;5.02;100.00
44926;BME280;30662;51.210;7.656;2023-04-27T07:26:01;150089.91;;;5.13;100.00
44926;BME280;30662;51.210;7.656;2023-04-27T07:28:27;150106.31;;;5.19;100.00
44926;BME280;30662;51.210;7.656;2023-04-27T07:30:53;150132.81;;;5.30;100.00
44926;BME280;30662;51.210;7.656;2023-04-27T07:33:20;150158.03;;;5.40;99.16
44926;BME280;30662;51.210;7.656;2023-04-27T07:35:46;150153.00;;;5.38;99.99
44926;BME280;30662;51.210;7.656;2023-04-27T07:38:15;150178.19;;;5.48;98.88
44926;BME280;30662;51.210;7.656;2023-04-27T07:40:42;150179.44;;;5.49;99.29
44926;BME280;30662;51.210;7.656;2023-04-27T07:43:10;150212.25;;;5.62;97.66
44926;BME280;30662;51.210;7.656;2023-04-27T07:45:36;150238.75;;;5.73;96.80
44926;BME280;30662;51.210;7.656;2023-04-27T07:48:04;150260.19;;;5.81;95.21
44926;BME280;30662;51.210;7.656;2023-04-27T07:50:31;150282.94;;;5.91;93.85
44926;BME280;30662;51.210;7.656;2023-04-27T07:52:57;150298.09;;;5.97;92.78
44926;BME280;30662;51.210;7.656;2023-04-27T07:55:23;150298.09;;;5.97;89.21
44926;BME280;30662;51.210;7.656;2023-04-27T07:57:53;150298.09;;;5.97;90.38
44926;BME280;30662;51.210;7.656;2023-04-27T08:00:19;150338.44;;;6.13;90.93
44926;BME280;30662;51.210;7.656;2023-04-27T08:02:46;150347.31;;;6.17;90.46
44926;BME280;30662;51.210;7.656;2023-04-27T08:05:13;150343.47;;;6.15;86.25
44926;BME280;30662;51.210;7.656;2023-04-27T08:07:39;150377.56;;;6.29;85.40
44926;BME280;30662;51.210;7.656;2023-04-27T08:10:10;150364.97;;;6.24;83.95
44926;BME280;30662;51.210;7.656;2023-04-27T08:12:36;150344.78;;;6.16;79.97
44926;BME280;30662;51.210;7.656;2023-04-27T08:15:02;150385.16;;;6.32;82.03
44926;BME280;30662;51.210;7.656;2023-04-27T08:17:27;150435.63;;;6.52;82.01
44926;BME280;30662;51.210;7.656;2023-04-27T08:19:53;150472.25;;;6.67;80.96
44926;BME280;30662;51.210;7.656;2023-04-27T08:22:19;150502.50;;;6.79;80.88
44926;BME280;30662;51.210;7.656;2023-04-27T08:24:45;150532.81;;;6.91;81.36
44926;BME280;30662;51.210;7.656;2023-04-27T08:27:11;150489.91;;;6.74;78.79
44926;BME280;30662;51.210;7.656;2023-04-27T08:29:37;150568.19;;;7.06;77.04
44926;BME280;30662;51.210;7.656;2023-04-27T08:32:03;150584.59;;;7.12;76.63
44926;BME280;30662;51.210;7.656;2023-04-27T08:34:29;150604.78;;;7.21;76.65
44926;BME280;30662;51.210;7.656;2023-04-27T08:36:55;150602.28;;;7.19;75.28
44926;BME280;30662;51.210;7.656;2023-04-27T08:39:22;150553.00;;;7.00;72.27
44926;BME280;30662;51.210;7.656;2023-04-27T08:41:49;150525.25;;;6.88;73.39
44926;BME280;30662;51.210;7.656;2023-04-27T08:44:14;150592.16;;;7.15;73.84
44926;BME280;30662;51.210;7.656;2023-04-27T08:46:40;150642.66;;;7.36;71.95
44926;BME280;30662;51.210;7.656;2023-04-27T08:49:06;150660.34;;;7.43;70.19
44926;BME280;30662;51.210;7.656;2023-04-27T08:51:33;150700.75;;;7.59;70.34
44926;BME280;30662;51.210;7.656;2023-04-27T08:53:59;150708.38;;;7.62;67.58
44926;BME280;30662;51.210;7.656;2023-04-27T08:56:27;150712.16;;;7.64;68.40
44926;BME280;30662;51.210;7.656;2023-04-27T08:58:54;150736.13;;;7.73;68.16
44926;BME280;30662;51.210;7.656;2023-04-27T09:01:21;150804.38;;;8.01;67.48
44926;BME280;30662;51.210;7.656;2023-04-27T09:03:48;150834.72;;;8.13;66.00
44926;BME280;30662;51.210;7.656;2023-04-27T09:06:31;150851.13;;;8.20;64.40
44926;BME280;30662;51.210;7.656;2023-04-27T09:08:58;150819.53;;;8.07;62.00
44926;BME280;30662;51.210;7.656;2023-04-27T09:13:54;150896.66;;;8.38;65.50
44926;BME280;30662;51.210;7.656;2023-04-27T09:16:24;150963.66;;;8.65;64.31
44926;BME280;30662;51.210;7.656;2023-04-27T09:18:50;150995.28;;;8.78;61.75
44926;BME280;30662;51.210;7.656;2023-04-27T09:21:24;151033.22;;;8.93;60.83
44926;BME280;30662;51.210;7.656;2023-04-27T09:23:51;151042.03;;;8.97;60.59
44926;BME280;30662;51.210;7.656;2023-04-27T09:26:22;151093.88;;;9.18;60.05
44926;BME280;30662;51.210;7.656;2023-04-27T09:28:49;150999.06;;;8.79;59.35
44926;BME280;30662;51.210;7.656;2023-04-27T09:31:16;151015.50;;;8.86;60.09
44926;BME280;30662;51.210;7.656;2023-04-27T09:33:43;151131.81;;;9.33;60.38
44926;BME280;30662;51.210;7.656;2023-04-27T09:36:09;151197.63;;;9.59;58.13
44926;BME280;30662;51.210;7.656;2023-04-27T09:38:35;151244.44;;;9.78;56.29
44926;BME280;30662;51.210;7.656;2023-04-27T09:41:02;151306.41;;;10.03;54.90
44926;BME280;30662;51.210;7.656;2023-04-27T09:43:28;151329.19;;;10.12;54.51
44926;BME280;30662;51.210;7.656;2023-04-27T09:45:56;151352.00;;;10.21;55.69
44926;BME280;30662;51.210;7.656;2023-04-27T09:48:24;151352.00;;;10.21;56.27
44926;BME280;30662;51.210;7.656;2023-04-27T09:50:51;151206.44;;;9.63;55.52
44926;BME280;30662;51.210;7.656;2023-04-27T09:53:20;151341.84;;;10.17;55.86
44926;BME280;30662;51.210;7.656;2023-04-27T10:07:00;151514.09;;;10.87;51.92
44926;BME280;30662;51.210;7.656;2023-04-27T10:09:35;151526.72;;;10.92;50.83
44926;BME280;30662;51.210;7.656;2023-04-27T10:12:20;151498.88;;;10.81;49.79
44926;BME280;30662;51.210;7.656;2023-04-27T10:14:54;151501.41;;;10.82;51.12
44926;BME280;30662;51.210;7.656;2023-04-27T10:17:34;151544.44;;;10.99;49.72
44926;BME280;30662;51.210;7.656;2023-04-27T10:20:05;151635.63;;;11.36;49.12
44926;BME280;30662;51.210;7.656;2023-04-27T10:27:39;151629.31;;;11.33;48.35
44926;BME280;30662;51.210;7.656;2023-04-27T10:30:10;151604.00;;;11.23;50.48
44926;BME280;30662;51.210;7.656;2023-04-27T10:32:36;151655.88;;;11.44;49.36
44926;BME280;30662;51.210;7.656;2023-04-27T10:35:03;151756.03;;;11.84;49.39
44926;BME280;30662;51.210;7.656;2023-04-27T10:37:38;151674.91;;;11.51;47.11
44926;BME280;30662;51.210;7.656;2023-04-27T10:40:10;151605.28;;;11.23;46.66
44926;BME280;30662;51.210;7.656;2023-04-27T10:42:40;151721.78;;;11.70;48.37
44926;BME280;30662;51.210;7.656;2023-04-27T10:45:06;151870.09;;;12.30;46.21
44926;BME280;30662;51.210;7.656;2023-04-27T10:47:40;151854.88;;;12.24;44.75
44926;BME280;30662;51.210;7.656;2023-04-27T10:50:11;151806.75;;;12.04;46.59
44926;BME280;30662;51.210;7.656;2023-04-27T10:52:44;151709.09;;;11.65;46.97
44926;BME280;30662;51.210;7.656;2023-04-27T10:55:18;151800.38;;;12.02;46.78
44926;BME280;30662;51.210;7.656;2023-04-27T10:57:53;151759.84;;;11.85;46.79
44926;BME280;30662;51.210;7.656;2023-04-27T11:02:56;151604.00;;;11.23;48.49
44926;BME280;30662;51.210;7.656;2023-04-27T11:05:25;151647.06;;;11.40;48.59
44926;BME280;30662;51.210;7.656;2023-04-27T11:08:07;151763.63;;;11.87;48.33
44926;BME280;30662;51.210;7.656;2023-04-27T11:10:37;151844.75;;;12.20;45.51
44926;BME280;30662;51.210;7.656;2023-04-27T11:13:07;151726.84;;;11.72;46.42
44926;BME280;30662;51.210;7.656;2023-04-27T11:15:59;151752.25;;;11.82;46.40
44926;BME280;30662;51.210;7.656;2023-04-27T11:18:28;151937.28;;;12.57;45.27
44926;BME280;30662;51.210;7.656;2023-04-27T11:21:08;152056.50;;;13.05;45.96
44926;BME280;30662;51.210;7.656;2023-04-27T11:23:35;152216.38;;;13.69;43.69
44926;BME280;30662;51.210;7.656;2023-04-27T11:26:16;152250.59;;;13.83;43.72
44926;BME280;30662;51.210;7.656;2023-04-27T11:28:44;152088.16;;;13.17;42.66
44926;BME280;30662;51.210;7.656;2023-04-27T11:31:21;151970.25;;;12.70;44.84
44926;BME280;30662;51.210;7.656;2023-04-27T11:33:48;151795.31;;;12.00;43.90
44926;BME280;30662;51.210;7.656;2023-04-27T11:36:18;151624.25;;;11.31;45.46
44926;BME280;30662;51.210;7.656;2023-04-27T11:38:44;151747.16;;;11.80;46.07
44926;BME280;30662;51.210;7.656;2023-04-27T11:41:11;151835.88;;;12.16;47.66
44926;BME280;30662;51.210;7.656;2023-04-27T11:43:40;151970.25;;;12.70;45.64
44926;BME280;30662;51.210;7.656;2023-04-27T11:46:14;152093.28;;;13.19;46.80
44926;BME280;30662;51.210;7.656;2023-04-27T11:48:40;152196.03;;;13.61;45.07
44926;BME280;30662;51.210;7.656;2023-04-27T11:51:10;152229.03;;;13.74;43.33
44926;BME280;30662;51.210;7.656;2023-04-27T11:53:39;152027.31;;;12.93;43.40
44926;BME280;30662;51.210;7.656;2023-04-27T11:56:06;152021.00;;;12.90;44.66
44926;BME280;30662;51.210;7.656;2023-04-27T11:58:33;152009.56;;;12.86;44.76
44926;BME280;30662;51.210;7.656;2023-04-27T12:00:59;152116.13;;;13.29;43.78
44926;BME280;30662;51.210;7.656;2023-04-27T12:03:27;152189.72;;;13.58;43.50
44926;BME280;30662;51.210;7.656;2023-04-27T12:05:53;152174.47;;;13.52;42.32
44926;BME280;30662;51.210;7.656;2023-04-27T12:08:19;152079.31;;;13.14;42.35
44926;BME280;30662;51.210;7.656;2023-04-27T12:10:45;151903.06;;;12.43;44.26
44926;BME280;30662;51.210;7.656;2023-04-27T12:13:12;151975.31;;;12.72;43.50
44926;BME280;30662;51.210;7.656;2023-04-27T12:15:39;152149.13;;;13.42;44.62
44926;BME280;30662;51.210;7.656;2023-04-27T12:18:05;152312.78;;;14.07;42.35
44926;BME280;30662;51.210;7.656;2023-04-27T12:20:32;152355.94;;;14.25;40.36
44926;BME280;30662;51.210;7.656;2023-04-27T12:23:01;152522.28;;;14.92;39.96
44926;BME280;30662;51.210;7.656;2023-04-27T12:25:27;152648.00;;;15.42;38.61
44926;BME280;30662;51.210;7.656;2023-04-27T12:27:53;152781.50;;;15.95;40.14
44926;BME280;30662;51.210;7.656;2023-04-27T12:30:21;152850.13;;;16.23;38.24
44926;BME280;30662;51.210;7.656;2023-04-27T12:32:47;152822.16;;;16.12;36.66
44926;BME280;30662;51.210;7.656;2023-04-27T12:35:13;152620.09;;;15.31;37.38
44926;BME280;30662;51.210;7.656;2023-04-27T12:37:39;152660.72;;;15.47;38.48
44926;BME280;30662;51.210;7.656;2023-04-27T12:40:05;152476.59;;;14.73;38.59
44926;BME280;30662;51.210;7.656;2023-04-27T12:42:33;152420.72;;;14.51;38.56
44926;BME280;30662;51.210;7.656;2023-04-27T12:44:59;152355.94;;;14.25;38.58
44926;BME280;30662;51.210;7.656;2023-04-27T12:47:26;152425.81;;;14.53;39.35
44926;BME280;30662;51.210;7.656;2023-04-27T12:50:12;152409.28;;;14.46;37.58
44926;BME280;30662;51.210;7.656;2023-04-27T12:52:38;152362.31;;;14.27;38.47
44926;BME280;30662;51.210;7.656;2023-04-27T12:55:04;152529.94;;;14.95;39.93
44926;BME280;30662;51.210;7.656;2023-04-27T12:57:31;152630.22;;;15.35;38.57
44926;BME280;30662;51.210;7.656;2023-04-27T12:59:56;152678.50;;;15.54;37.66
44926;BME280;30662;51.210;7.656;2023-04-27T13:02:25;152632.81;;;15.36;37.94
44926;BME280;30662;51.210;7.656;2023-04-27T13:04:51;152726.84;;;15.74;38.06
44926;BME280;30662;51.210;7.656;2023-04-27T13:07:17;152701.41;;;15.63;38.27
44926;BME280;30662;51.210;7.656;2023-04-27T13:09:43;152687.44;;;15.58;37.86
44926;BME280;30662;51.210;7.656;2023-04-27T13:12:09;152750.97;;;15.83;38.11
44926;BME280;30662;51.210;7.656;2023-04-27T13:14:35;152803.09;;;16.04;36.99